Главная страница
METAR-TAF:

METAR-TAF

Аэропорты :

Багдад, Ирак

широта: 33-15-45N, долгота: 44-14-04E, высота над уровнем моря: 35 м

Текущие метеонаблюдения

Эта сводка был подготовлена 18 минут назад, в 12:30 UTC
Ветер 16 Узел от северный
Температура 23°C
Влажность 61%
Давление 1012 hPa
Видимость: 4700 м
небольшая облачность на высоте 2500 фута, Кучево-дождевые.
Сплошная облачность на высоте 3000 фута

METAR: ORBI 211230Z 35016KT 4700 FEW025CB OVC030 23/15 Q1012

Время: 15:48 (12:48 UTC)

Прогноз

Эта сводка был подготовлена 2 часа и 48 минут назад, в 10:00 UTC
Прогноз действительный с 21-го 12 UTC до 22-го 12 UTC
Ветер 20 Узел от восточно-юго-восточный
Видимость: 4000 м
небольшая облачность на высоте 2500 фута, Кучево-дождевые.
Рассеянная облачность на высоте 3000 фута
изменения
С 21-го 20 UTC до 21-го 22 UTC
Видимость: 6000 м

TAF: ORBI 211000Z 2112/2212 12020KT 4000 TSSHRA FEW025CB BKN030 BECMG 2120/2122 6000

Метеонаблюдения и прогнозы для более 4000 аэропортов (сводки METAR и TAF).

Имеющиеся станции представлены на карте желтыми и красными точками.

Чтобы увидеть название станции, наведите на нее мышь.

Затем щелкните, чтобы увидеть метеонаблюдения и метеопрогнозы.

Управление картой: чтобы увеличить масштаб, щелкните зеленые кнопки с черным крестиком; чтобы уменьшить масштаб, щелкните зеленую кнопку с тире; для просмотра соседних карт щелкайте зеленые стрелки.


METAR-TAF: